Buffalo, Illinois
Current Conditions -  °F | °C
As of 11:52 PM on Thursday 27 Nov 2014 (Local Time) from KSPI Reporting Station
Overcast Overcast  
Wind Chill: -8°   Ceiling: 9500
Heat Index: -8°   Visibility: 10mi
Dew Point: -13°   Wind: 3mph
Humidity: 65%   Direction: 20°NNE
Pressure: 30.42"   Gusts: NA
Location:  39.85°N, 89.41°W
Report Text: KSPI 280552Z AUTO 02003KT 10SM FEW060 SCT075 OVC095 M08/M13 A3042 RMK AO2 SLP312 T10781133 11078 21128 410221128 58002
Loading
Personal Weather Stations






























Interactive Weather Map New forecast layout! Learn more

10-Day Weather Forecast

Advertisements
Track Severe Weather on mobile